createdAt,value
2023-05-09T00:01:06.313Z,100023.53
2023-05-09T00:03:33.505Z,100017.41
2023-05-09T00:06:00.735Z,100017.41
2023-05-09T00:08:29.270Z,100021.84
2023-05-09T00:10:56.465Z,100027.13
2023-05-09T00:13:23.872Z,100027.41
2023-05-09T00:15:51.214Z,100015.38
2023-05-09T00:18:18.377Z,100022.28
2023-05-09T00:20:45.568Z,100019.00
2023-05-09T00:23:12.724Z,100017.94
2023-05-09T00:25:41.265Z,100017.06
2023-05-09T00:28:08.515Z,100014.63
2023-05-09T00:30:35.709Z,100005.91
2023-05-09T00:33:03.066Z,100011.06
2023-05-09T00:35:30.395Z,100008.78
2023-05-09T00:37:57.639Z,100002.72
2023-05-09T00:40:24.889Z,99999.63
2023-05-09T00:42:53.419Z,99997.88
2023-05-09T00:45:20.851Z,99995.81
2023-05-09T00:47:48.035Z,99988.06
2023-05-09T00:50:15.537Z,99984.47
2023-05-09T00:52:43.022Z,99987.66
2023-05-09T00:55:10.695Z,99988.53
2023-05-09T00:57:37.943Z,99980.75
2023-05-09T01:00:09.634Z,99981.63
2023-05-09T01:02:36.744Z,99976.38
2023-05-09T01:05:04.429Z,99977.41
2023-05-09T01:07:38.367Z,99973.66
2023-05-09T01:10:14.958Z,99968.53
2023-05-09T01:12:49.625Z,99975.22
2023-05-09T01:15:26.876Z,99970.34
2023-05-09T01:17:59.637Z,99968.84
2023-05-09T01:20:33.520Z,99969.25
2023-05-09T01:23:18.581Z,99961.88
2023-05-09T01:25:57.545Z,99967.09
2023-05-09T01:28:36.453Z,99958.75
2023-05-09T01:31:08.577Z,99954.16
2023-05-09T01:33:39.807Z,99953.22
2023-05-09T01:36:12.824Z,99950.66
2023-05-09T01:38:42.258Z,99952.59
2023-05-09T01:41:12.086Z,99949.28
2023-05-09T01:43:42.186Z,99952.47
2023-05-09T01:46:12.063Z,99950.41
2023-05-09T01:48:41.965Z,99945.75
2023-05-09T01:51:13.059Z,99943.38
2023-05-09T01:53:42.129Z,99942.31
2023-05-09T01:56:10.835Z,99943.81
2023-05-09T01:58:40.068Z,99945.88
2023-05-09T02:01:07.614Z,99950.53
2023-05-09T02:03:39.053Z,99950.16
2023-05-09T02:06:07.413Z,99949.47
2023-05-09T02:08:35.065Z,99939.38
2023-05-09T02:11:02.298Z,99942.31
2023-05-09T02:13:29.681Z,99937.88
2023-05-09T02:15:57.247Z,99939.75
2023-05-09T02:18:24.372Z,99936.16
2023-05-09T02:20:53.286Z,99942.31
2023-05-09T02:23:20.824Z,99937.66
2023-05-09T02:25:48.221Z,99937.94
2023-05-09T02:28:18.405Z,99936.81
2023-05-09T02:30:47.243Z,99933.69
2023-05-09T02:33:14.471Z,99937.09
2023-05-09T02:35:45.109Z,99931.97
2023-05-09T02:38:14.722Z,99934.47
2023-05-09T02:40:43.444Z,99934.09
2023-05-09T02:43:11.009Z,99930.69
2023-05-09T02:45:38.229Z,99933.22
2023-05-09T02:48:08.742Z,99923.75
2023-05-09T02:50:36.554Z,99929.25
2023-05-09T02:53:03.757Z,99921.22
2023-05-09T02:55:32.303Z,99921.44
2023-05-09T02:58:12.699Z,99917.84
2023-05-09T03:00:40.714Z,99910.66
2023-05-09T03:03:08.979Z,99912.78
2023-05-09T03:05:36.306Z,99917.16
2023-05-09T03:08:04.004Z,99913.59
2023-05-09T03:10:34.467Z,99905.00
2023-05-09T03:13:01.670Z,99904.50
2023-05-09T03:15:28.902Z,99905.56
2023-05-09T03:17:58.128Z,99903.88
2023-05-09T03:20:26.128Z,99909.34
2023-05-09T03:22:53.360Z,99899.16
2023-05-09T03:25:21.569Z,99899.47
2023-05-09T03:27:50.246Z,99900.53
2023-05-09T03:30:17.597Z,99899.47
2023-05-09T03:32:47.502Z,99899.97
2023-05-09T03:35:14.904Z,99898.53
2023-05-09T03:37:42.265Z,99896.59
2023-05-09T03:40:10.973Z,99889.31
2023-05-09T03:42:46.029Z,99881.81
2023-05-09T03:45:14.868Z,99883.72
2023-05-09T03:47:42.997Z,99878.53
2023-05-09T03:50:10.878Z,99878.22
2023-05-09T03:52:38.129Z,99892.31
2023-05-09T03:55:07.547Z,99872.69
2023-05-09T03:57:36.646Z,99882.00
2023-05-09T04:00:04.631Z,99874.00
2023-05-09T04:02:42.499Z,99869.75
2023-05-09T04:05:17.458Z,99875.09
2023-05-09T04:07:45.441Z,99874.69
2023-05-09T04:10:13.072Z,99878.34
2023-05-09T04:12:40.464Z,99879.03
2023-05-09T04:15:09.362Z,99879.16
2023-05-09T04:17:36.902Z,99878.66
2023-05-09T04:20:06.676Z,99874.56
2023-05-09T04:22:34.046Z,99872.28
2023-05-09T04:25:01.299Z,99859.88
2023-05-09T04:27:28.725Z,99865.63
2023-05-09T04:29:56.194Z,99871.09
2023-05-09T04:32:23.466Z,99869.22
2023-05-09T04:34:51.226Z,99877.28
2023-05-09T04:37:24.632Z,99881.09
2023-05-09T04:39:52.113Z,99873.31
2023-05-09T04:42:25.290Z,99880.28
2023-05-09T04:44:52.536Z,99878.50
2023-05-09T04:47:21.792Z,99874.56
2023-05-09T04:49:49.000Z,99877.53
2023-05-09T04:52:17.071Z,99866.81
2023-05-09T04:54:45.681Z,99866.81
2023-05-09T04:57:18.447Z,99873.81
2023-05-09T04:59:50.798Z,99868.84
2023-05-09T05:02:19.393Z,99864.66
2023-05-09T05:04:48.019Z,99865.91
2023-05-09T05:07:15.966Z,99862.56
2023-05-09T05:09:45.595Z,99860.72
2023-05-09T05:12:12.806Z,99857.78
2023-05-09T05:14:41.849Z,99861.63
2023-05-09T05:17:10.961Z,99864.25
2023-05-09T05:19:38.284Z,99866.41
2023-05-09T05:22:07.785Z,99868.78
2023-05-09T05:24:37.254Z,99860.47
2023-05-09T05:27:05.941Z,99863.34
2023-05-09T05:29:33.103Z,99861.47
2023-05-09T05:32:00.985Z,99861.91
2023-05-09T05:34:28.157Z,99854.50
2023-05-09T05:36:56.077Z,99847.97
2023-05-09T05:39:23.362Z,99853.88
2023-05-09T05:41:52.458Z,99857.44
2023-05-09T05:44:21.369Z,99846.84
2023-05-09T05:46:48.539Z,99843.50
2023-05-09T05:49:15.736Z,99847.94
2023-05-09T05:51:43.381Z,99851.72
2023-05-09T05:54:11.571Z,99851.06
2023-05-09T05:56:38.706Z,99847.69
2023-05-09T05:59:06.143Z,99838.75
2023-05-09T06:01:34.870Z,99840.66
2023-05-09T06:04:02.680Z,99847.81
2023-05-09T06:06:31.923Z,99846.75
2023-05-09T06:08:59.109Z,99844.59
2023-05-09T06:11:26.290Z,99832.06
2023-05-09T06:13:53.512Z,99838.47
2023-05-09T06:16:20.849Z,99833.44
2023-05-09T06:18:55.512Z,99835.31
2023-05-09T06:21:23.341Z,99830.25
2023-05-09T06:24:07.890Z,99832.78
2023-05-09T06:26:37.379Z,99828.72
2023-05-09T06:29:04.747Z,99826.31
2023-05-09T06:31:32.066Z,99828.63
2023-05-09T06:34:00.589Z,99825.63
2023-05-09T06:36:27.721Z,99827.69
2023-05-09T06:38:54.912Z,99827.69
2023-05-09T06:41:22.098Z,99828.47
2023-05-09T06:43:49.957Z,99834.88
2023-05-09T06:46:17.334Z,99830.53
2023-05-09T06:48:44.527Z,99824.31
2023-05-09T06:51:13.050Z,99823.38
2023-05-09T06:53:40.244Z,99822.50
2023-05-09T06:56:07.697Z,99820.06
2023-05-09T06:58:35.649Z,99819.78
2023-05-09T07:01:02.898Z,99815.16
2023-05-09T07:03:30.320Z,99813.34
2023-05-09T07:05:57.495Z,99815.81
2023-05-09T07:08:26.105Z,99810.66
2023-05-09T07:10:53.330Z,99802.97
2023-05-09T07:13:20.672Z,99796.25
2023-05-09T07:15:47.913Z,99804.34
2023-05-09T07:18:16.209Z,99794.47
2023-05-09T07:20:43.399Z,99789.50
2023-05-09T07:23:10.586Z,99796.94
2023-05-09T07:25:39.093Z,99793.50
2023-05-09T07:28:06.330Z,99788.69
2023-05-09T07:30:33.474Z,99792.91
2023-05-09T07:33:00.653Z,99786.91
2023-05-09T07:35:27.818Z,99786.16
2023-05-09T07:37:54.959Z,99780.75
2023-05-09T07:40:22.096Z,99782.00
2023-05-09T07:42:50.614Z,99772.50
2023-05-09T07:45:19.379Z,99774.44
2023-05-09T07:47:47.824Z,99773.50
2023-05-09T07:50:15.206Z,99772.53
2023-05-09T07:52:42.421Z,99770.13
2023-05-09T07:55:09.834Z,99760.75
2023-05-09T07:57:37.001Z,99761.53
2023-05-09T08:00:07.137Z,99755.63
2023-05-09T08:02:40.622Z,99755.09
2023-05-09T08:05:09.030Z,99749.94
2023-05-09T08:07:36.190Z,99742.25
2023-05-09T08:10:03.759Z,99738.13
2023-05-09T08:12:30.907Z,99724.00
2023-05-09T08:14:58.092Z,99721.25
2023-05-09T08:17:26.673Z,99717.69
2023-05-09T08:19:53.867Z,99701.31
2023-05-09T08:22:21.018Z,99705.69
2023-05-09T08:24:48.191Z,99703.16
2023-05-09T08:27:15.476Z,99699.03
2023-05-09T08:29:43.535Z,99707.47
2023-05-09T08:32:10.948Z,99700.31
2023-05-09T08:34:39.496Z,99699.09
2023-05-09T08:37:06.680Z,99678.59
2023-05-09T08:39:33.824Z,99690.75
2023-05-09T08:42:02.253Z,99680.78
2023-05-09T08:44:30.579Z,99671.03
2023-05-09T08:46:59.892Z,99667.56
2023-05-09T08:49:27.593Z,99666.88
2023-05-09T08:51:57.087Z,99673.88
2023-05-09T08:54:24.960Z,99669.75
2023-05-09T08:56:52.426Z,99673.09
2023-05-09T08:59:19.655Z,99662.69
2023-05-09T09:01:47.880Z,99651.38
2023-05-09T09:04:15.169Z,99659.66
2023-05-09T09:06:42.766Z,99654.88
2023-05-09T09:09:12.720Z,99648.91
2023-05-09T09:11:41.712Z,99637.91
2023-05-09T09:14:12.374Z,99647.59
2023-05-09T09:16:41.496Z,99641.72
2023-05-09T09:19:11.894Z,99631.31
2023-05-09T09:21:41.663Z,99627.72
2023-05-09T09:24:11.259Z,99621.72
2023-05-09T09:26:46.183Z,99622.34
2023-05-09T09:29:13.847Z,99608.50
2023-05-09T09:31:44.730Z,99610.03
2023-05-09T09:34:13.391Z,99608.63
2023-05-09T09:36:40.636Z,99608.84
2023-05-09T09:39:07.823Z,99614.41
2023-05-09T09:41:36.674Z,99604.34
2023-05-09T09:44:09.289Z,99592.56
2023-05-09T09:46:42.183Z,99587.75
2023-05-09T09:49:09.872Z,99585.59
2023-05-09T09:51:37.077Z,99583.25
2023-05-09T09:54:06.294Z,99575.72
2023-05-09T09:56:41.706Z,99576.25
2023-05-09T09:59:11.909Z,99581.69
2023-05-09T10:01:55.737Z,99577.06
2023-05-09T10:04:23.541Z,99575.94
2023-05-09T10:06:54.450Z,99573.97
2023-05-09T10:09:22.637Z,99565.59
2023-05-09T10:11:51.767Z,99559.09
2023-05-09T10:14:22.242Z,99558.19
2023-05-09T10:16:51.521Z,99550.47
2023-05-09T10:19:19.764Z,99555.28
2023-05-09T10:21:52.454Z,99549.53
2023-05-09T10:24:26.602Z,99550.63
2023-05-09T10:26:59.347Z,99545.66
2023-05-09T10:29:29.790Z,99543.97
2023-05-09T10:31:59.631Z,99538.06
2023-05-09T10:34:30.529Z,99534.50
2023-05-09T10:36:59.044Z,99528.13
2023-05-09T10:39:27.607Z,99528.78
2023-05-09T10:41:55.598Z,99529.72
2023-05-09T10:44:23.812Z,99529.97
2023-05-09T10:46:53.430Z,99524.38
2023-05-09T10:49:21.457Z,99516.63
2023-05-09T10:51:49.962Z,99512.69
2023-05-09T10:54:29.315Z,99505.69
2023-05-09T10:56:58.149Z,99505.47
2023-05-09T10:59:33.382Z,99496.28
2023-05-09T11:02:02.472Z,99497.66
2023-05-09T11:04:30.367Z,99494.84
2023-05-09T11:06:58.001Z,99491.53
2023-05-09T11:09:27.380Z,99488.19
2023-05-09T11:11:55.918Z,99480.59
2023-05-09T11:14:33.396Z,99469.75
2023-05-09T11:17:04.056Z,99459.72
2023-05-09T11:19:56.425Z,99456.66
2023-05-09T11:22:25.389Z,99443.84
2023-05-09T11:24:59.644Z,99446.91
2023-05-09T11:27:27.810Z,99446.34
2023-05-09T11:29:56.992Z,99441.63
2023-05-09T11:32:31.649Z,99434.31
2023-05-09T11:35:06.707Z,99438.88
2023-05-09T11:37:33.940Z,99434.22
2023-05-09T11:40:02.418Z,99431.50
2023-05-09T11:42:30.719Z,99428.47
2023-05-09T11:44:58.821Z,99421.81
2023-05-09T11:47:27.789Z,99415.97
2023-05-09T11:49:54.960Z,99408.91
2023-05-09T11:52:22.291Z,99407.91
2023-05-09T11:54:49.447Z,99411.19
2023-05-09T11:57:16.850Z,99407.56
2023-05-09T11:59:44.732Z,99401.50
2023-05-09T12:02:12.093Z,99404.75
2023-05-09T12:04:40.990Z,99400.81
2023-05-09T12:07:11.639Z,99387.66
2023-05-09T12:09:38.850Z,99395.06
2023-05-09T12:12:10.004Z,99393.13
2023-05-09T12:14:37.648Z,99384.88
2023-05-09T12:17:04.891Z,99381.97
2023-05-09T12:19:32.228Z,99381.03
2023-05-09T12:22:02.357Z,99372.91
2023-05-09T12:24:30.403Z,99378.47
2023-05-09T12:26:59.354Z,99370.66
2023-05-09T12:29:26.983Z,99362.75
2023-05-09T12:31:55.189Z,99359.94
2023-05-09T12:34:22.838Z,99354.16
2023-05-09T12:36:50.040Z,99351.16
2023-05-09T12:39:19.098Z,99356.16
2023-05-09T12:41:57.317Z,99338.44
2023-05-09T12:44:28.066Z,99342.97
2023-05-09T12:46:57.285Z,99337.72
2023-05-09T12:49:25.024Z,99337.91
2023-05-09T12:51:52.904Z,99335.06
2023-05-09T12:54:22.143Z,99321.16
2023-05-09T12:56:49.945Z,99322.50
2023-05-09T12:59:20.711Z,99311.31
2023-05-09T13:01:58.183Z,99309.19
2023-05-09T13:04:27.623Z,99302.53
2023-05-09T13:06:56.363Z,99291.59
2023-05-09T13:09:26.152Z,99286.63
2023-05-09T13:11:53.640Z,99290.78
2023-05-09T13:14:22.686Z,99292.53
2023-05-09T13:16:49.959Z,99284.19
2023-05-09T13:19:17.220Z,99278.19
2023-05-09T13:21:44.674Z,99266.03
2023-05-09T13:24:11.885Z,99274.47
2023-05-09T13:26:40.406Z,99269.22
2023-05-09T13:29:07.541Z,99260.91
2023-05-09T13:31:34.753Z,99258.63
2023-05-09T13:34:01.924Z,99250.81
2023-05-09T13:36:29.123Z,99241.53
2023-05-09T13:38:56.313Z,99237.88
2023-05-09T13:41:23.530Z,99231.50
2023-05-09T13:43:52.107Z,99234.78
2023-05-09T13:46:19.338Z,99222.72
2023-05-09T13:48:46.557Z,99224.28
2023-05-09T13:51:13.754Z,99218.41
2023-05-09T13:53:40.958Z,99214.84
2023-05-09T13:56:08.337Z,99207.97
2023-05-09T13:58:35.512Z,99204.59
2023-05-09T14:01:04.178Z,99199.31
2023-05-09T14:03:31.478Z,99190.59
2023-05-09T14:05:58.745Z,99189.56
2023-05-09T14:08:25.922Z,99195.56
2023-05-09T14:10:53.093Z,99192.19
2023-05-09T14:13:20.289Z,99188.66
2023-05-09T14:15:47.662Z,99180.88
2023-05-09T14:18:19.199Z,99176.31
2023-05-09T14:20:48.191Z,99173.41
2023-05-09T14:23:15.393Z,99179.53
2023-05-09T14:25:42.653Z,99164.81
2023-05-09T14:28:09.781Z,99171.22
2023-05-09T14:30:37.002Z,99168.75
2023-05-09T14:33:04.278Z,99165.47
2023-05-09T14:35:33.153Z,99150.84
2023-05-09T14:38:00.903Z,99147.22
2023-05-09T14:40:28.246Z,99135.66
2023-05-09T14:42:55.467Z,99135.25
2023-05-09T14:45:22.635Z,99131.66
2023-05-09T14:47:49.803Z,99124.16
2023-05-09T14:50:17.429Z,99123.75
2023-05-09T14:52:46.084Z,99114.56
2023-05-09T14:55:13.250Z,99112.19
2023-05-09T14:57:40.413Z,99103.19
2023-05-09T15:00:19.643Z,99096.94
2023-05-09T15:02:48.835Z,99101.00
2023-05-09T15:05:16.161Z,99097.22
2023-05-09T15:07:43.351Z,99087.88
2023-05-09T15:10:11.985Z,99090.28
2023-05-09T15:12:39.121Z,99075.00
2023-05-09T15:15:14.142Z,99078.13
2023-05-09T15:17:41.316Z,99075.81
2023-05-09T15:20:09.345Z,99072.50
2023-05-09T15:22:36.560Z,99085.91
2023-05-09T15:25:06.216Z,99069.13
2023-05-09T15:27:34.913Z,99061.53
2023-05-09T15:30:02.107Z,99065.88
2023-05-09T15:32:29.338Z,99056.09
2023-05-09T15:34:56.478Z,99056.94
2023-05-09T15:37:23.675Z,99062.41
2023-05-09T15:39:50.888Z,99037.91
2023-05-09T15:42:18.341Z,99046.97
2023-05-09T15:44:46.854Z,99040.78
2023-05-09T15:47:14.322Z,99041.19
2023-05-09T15:49:41.523Z,99038.94
2023-05-09T15:52:09.386Z,99039.53
2023-05-09T15:54:37.281Z,99023.63
2023-05-09T15:57:04.462Z,99033.84
2023-05-09T15:59:31.636Z,99025.88
2023-05-09T16:02:00.200Z,99031.44
2023-05-09T16:04:27.397Z,99021.16
2023-05-09T16:06:54.568Z,99024.13
2023-05-09T16:09:21.708Z,99021.31
2023-05-09T16:11:48.854Z,99012.72
2023-05-09T16:14:16.024Z,99008.28
2023-05-09T16:16:43.301Z,99001.75
2023-05-09T16:19:11.901Z,98998.97
2023-05-09T16:21:39.241Z,98991.41
2023-05-09T16:24:07.855Z,98990.25
2023-05-09T16:26:35.014Z,98990.22
2023-05-09T16:29:02.224Z,98984.75
2023-05-09T16:31:29.477Z,98980.88
2023-05-09T16:33:56.950Z,98981.78
2023-05-09T16:36:25.504Z,98978.47
2023-05-09T16:38:52.668Z,98973.97
2023-05-09T16:41:19.803Z,98960.06
2023-05-09T16:43:46.962Z,98960.31
2023-05-09T16:46:14.150Z,98961.78
2023-05-09T16:48:41.327Z,98951.22
2023-05-09T16:51:08.486Z,98957.75
2023-05-09T16:53:37.011Z,98948.81
2023-05-09T16:56:04.961Z,98952.53
2023-05-09T16:58:32.089Z,98933.94
2023-05-09T17:00:59.240Z,98943.38
2023-05-09T17:03:26.412Z,98933.94
2023-05-09T17:05:53.578Z,98931.75
2023-05-09T17:08:20.837Z,98924.78
2023-05-09T17:10:49.360Z,98930.38
2023-05-09T17:13:16.515Z,98928.16
2023-05-09T17:15:44.280Z,98922.66
2023-05-09T17:18:13.619Z,98930.69
2023-05-09T17:20:44.276Z,98922.34
2023-05-09T17:23:11.434Z,98922.06
2023-05-09T17:25:38.585Z,98915.09
2023-05-09T17:28:07.098Z,98912.88
2023-05-09T17:30:34.246Z,98907.03
2023-05-09T17:33:01.542Z,98905.66
2023-05-09T17:35:28.741Z,98909.25
2023-05-09T17:37:55.939Z,98903.97
2023-05-09T17:40:23.108Z,98907.28
2023-05-09T17:42:50.277Z,98901.31
2023-05-09T17:45:18.988Z,98899.66
2023-05-09T17:47:46.401Z,98898.75
2023-05-09T17:50:13.998Z,98890.94
2023-05-09T17:52:41.267Z,98888.09
2023-05-09T17:55:09.074Z,98894.94
2023-05-09T17:57:36.219Z,98886.31
2023-05-09T18:00:04.194Z,98880.13
2023-05-09T18:02:41.839Z,98879.19
2023-05-09T18:05:09.545Z,98880.53
2023-05-09T18:07:39.501Z,98878.22
2023-05-09T18:10:08.114Z,98875.59
2023-05-09T18:12:36.962Z,98868.16
2023-05-09T18:15:05.856Z,98871.84
2023-05-09T18:17:33.054Z,98878.56
2023-05-09T18:20:01.682Z,98886.25
2023-05-09T18:22:28.879Z,98881.00
2023-05-09T18:24:56.027Z,98883.66
2023-05-09T18:27:23.178Z,98870.31
2023-05-09T18:29:50.387Z,98877.84
2023-05-09T18:32:17.580Z,98875.97
2023-05-09T18:34:44.741Z,98875.91
2023-05-09T18:37:13.217Z,98879.75
2023-05-09T18:39:40.350Z,98877.47
2023-05-09T18:42:07.504Z,98876.63
2023-05-09T18:44:34.921Z,98877.56
2023-05-09T18:47:02.199Z,98879.00
2023-05-09T18:49:29.378Z,98885.63
2023-05-09T18:51:56.633Z,98882.63
2023-05-09T18:54:25.306Z,98899.53
2023-05-09T18:56:52.565Z,98905.81
2023-05-09T18:59:19.779Z,98912.66
2023-05-09T19:01:46.919Z,98922.06
2023-05-09T19:04:14.223Z,98933.97
2023-05-09T19:06:41.397Z,98927.09
2023-05-09T19:09:08.554Z,98925.13
2023-05-09T19:11:37.151Z,98921.97
2023-05-09T19:14:04.436Z,98923.75
2023-05-09T19:16:31.854Z,98925.81
2023-05-09T19:18:59.294Z,98925.69
2023-05-09T19:21:26.528Z,98925.50
2023-05-09T19:23:53.705Z,98933.22
2023-05-09T19:26:20.873Z,98931.22
2023-05-09T19:28:49.372Z,98945.19
2023-05-09T19:31:17.879Z,98938.72
2023-05-09T19:33:46.561Z,98950.78
2023-05-09T19:36:14.069Z,98952.31
2023-05-09T19:38:41.248Z,98953.22
2023-05-09T19:41:08.445Z,98958.91
2023-05-09T19:43:35.624Z,98958.13
2023-05-09T19:46:04.205Z,98956.63
2023-05-09T19:48:31.400Z,98957.94
2023-05-09T19:50:58.699Z,98959.25
2023-05-09T19:53:25.907Z,98956.91
2023-05-09T19:55:53.205Z,98962.31
2023-05-09T19:58:20.419Z,98960.22
2023-05-09T20:00:48.366Z,98955.78
2023-05-09T20:03:17.019Z,98958.13
2023-05-09T20:05:44.308Z,98962.31
2023-05-09T20:08:11.488Z,98957.19
2023-05-09T20:10:38.710Z,98946.94
2023-05-09T20:13:05.890Z,98949.81
2023-05-09T20:15:33.285Z,98951.63
2023-05-09T20:18:00.502Z,98941.56
2023-05-09T20:20:29.223Z,98953.31
2023-05-09T20:22:56.337Z,98946.13
2023-05-09T20:25:23.639Z,98951.28
2023-05-09T20:27:50.864Z,98941.94
2023-05-09T20:30:18.106Z,98940.16
2023-05-09T20:32:45.421Z,98944.47
2023-05-09T20:35:12.600Z,98941.97
2023-05-09T20:37:41.107Z,98946.28
2023-05-09T20:40:09.039Z,98945.44
2023-05-09T20:42:36.224Z,98946.03
2023-05-09T20:45:03.911Z,98935.34
2023-05-09T20:47:31.179Z,98940.16
2023-05-09T20:49:58.601Z,98948.66
2023-05-09T20:52:25.868Z,98938.72
2023-05-09T20:54:54.380Z,98952.06
2023-05-09T20:57:21.543Z,98949.31
2023-05-09T20:59:48.791Z,98956.16
2023-05-09T21:02:16.168Z,98962.72
2023-05-09T21:04:44.439Z,98957.00
2023-05-09T21:07:11.601Z,98958.28
2023-05-09T21:09:38.781Z,98957.00
2023-05-09T21:12:09.275Z,98952.78
2023-05-09T21:14:38.283Z,98956.38
2023-05-09T21:17:05.509Z,98956.50
2023-05-09T21:19:33.053Z,98952.94
2023-05-09T21:22:00.181Z,98948.72
2023-05-09T21:24:27.319Z,98946.09
2023-05-09T21:26:54.470Z,98943.34
2023-05-09T21:29:22.949Z,98941.19
2023-05-09T21:31:50.094Z,98942.38
2023-05-09T21:34:17.261Z,98942.72
2023-05-09T21:36:44.464Z,98945.22
2023-05-09T21:39:11.684Z,98938.88
2023-05-09T21:41:39.844Z,98940.78
2023-05-09T21:44:07.191Z,98941.97
2023-05-09T21:46:35.798Z,98937.78
2023-05-09T21:49:03.334Z,98935.84
2023-05-09T21:51:30.501Z,98935.50
2023-05-09T21:53:57.609Z,98927.47
2023-05-09T21:56:24.866Z,98935.94
2023-05-09T21:58:52.057Z,98930.78
2023-05-09T22:01:19.273Z,98927.34
2023-05-09T22:03:47.950Z,98921.84
2023-05-09T22:06:15.200Z,98932.59
2023-05-09T22:08:42.407Z,98929.09
2023-05-09T22:11:09.577Z,98920.84
2023-05-09T22:13:36.757Z,98924.91
2023-05-09T22:16:05.109Z,98919.66
2023-05-09T22:18:32.290Z,98919.28
2023-05-09T22:21:00.912Z,98920.59
2023-05-09T22:23:28.137Z,98918.44
2023-05-09T22:25:55.359Z,98908.16
2023-05-09T22:28:22.526Z,98917.31
2023-05-09T22:30:49.677Z,98915.88
2023-05-09T22:33:16.847Z,98912.56
2023-05-09T22:35:43.993Z,98908.81
2023-05-09T22:38:12.476Z,98911.56
2023-05-09T22:40:39.696Z,98909.03
2023-05-09T22:43:06.846Z,98910.50
2023-05-09T22:45:34.078Z,98916.22
2023-05-09T22:48:01.263Z,98910.13
2023-05-09T22:50:28.435Z,98913.47
2023-05-09T22:52:55.661Z,98907.47
2023-05-09T22:55:24.252Z,98909.28
2023-05-09T22:57:51.417Z,98908.19
2023-05-09T23:00:18.796Z,98912.66
2023-05-09T23:02:46.102Z,98909.28
2023-05-09T23:05:13.346Z,98913.09
2023-05-09T23:07:40.537Z,98912.75
2023-05-09T23:10:08.432Z,98898.84
2023-05-09T23:12:36.933Z,98902.66
2023-05-09T23:15:04.858Z,98898.00
2023-05-09T23:17:32.009Z,98898.69
2023-05-09T23:19:59.187Z,98901.00
2023-05-09T23:22:26.355Z,98902.06
2023-05-09T23:24:53.506Z,98903.34
2023-05-09T23:27:20.742Z,98900.22
2023-05-09T23:29:49.244Z,98890.09
2023-05-09T23:32:16.400Z,98892.63
2023-05-09T23:34:43.563Z,98894.38
2023-05-09T23:37:10.745Z,98887.56
2023-05-09T23:39:37.936Z,98892.22
2023-05-09T23:42:05.298Z,98889.69
2023-05-09T23:44:32.488Z,98883.16
2023-05-09T23:47:01.074Z,98890.31
2023-05-09T23:49:28.268Z,98883.38
2023-05-09T23:51:55.437Z,98882.31
2023-05-09T23:54:22.598Z,98881.91
2023-05-09T23:56:49.870Z,98883.56
2023-05-09T23:59:17.048Z,98875.34
